Time;durP1;ratioP1;P1;durP2;ratioP2;P2;SDS_P1;SDS_P2;PMS_P1;PMS_P2;Temp;Humidity;BMP_temperature;BMP_pressure;BME280_temperature;BME280_humidity;BME280_pressure;Samples;Min_cycle;Max_cycle;Signal;HPM_P1;HPM_P2
2022/01/09 00:01:15;;;;;;;4.13;2.35;;;9.70;99.90;;;;;;5079300;28;20663;-65
2022/01/09 00:03:46;;;;;;;3.60;2.30;;;9.70;99.90;;;;;;5070730;28;20643;-65
2022/01/09 00:06:17;;;;;;;4.93;2.58;;;9.60;99.90;;;;;;5078295;28;20479;-64
2022/01/09 00:08:48;;;;;;;5.33;3.27;;;9.60;99.90;;;;;;5080807;28;20247;-64
2022/01/09 00:11:25;;;;;;;4.77;3.13;;;9.50;99.90;;;;;;5075761;28;20538;-65
2022/01/09 00:14:00;;;;;;;5.67;3.20;;;9.50;99.90;;;;;;5079167;28;20548;-64
2022/01/09 00:16:33;;;;;;;4.57;2.60;;;9.40;99.90;;;;;;5078320;28;20454;-64
2022/01/09 00:19:09;;;;;;;8.35;3.42;;;9.30;99.90;;;;;;5082177;28;20501;-64
2022/01/09 00:21:42;;;;;;;5.70;2.60;;;9.30;99.90;;;;;;5082814;28;20209;-64
2022/01/09 00:24:13;;;;;;;3.40;2.53;;;9.20;99.90;;;;;;5080064;28;20529;-64
2022/01/09 00:26:44;;;;;;;4.85;2.72;;;9.20;99.90;;;;;;5081268;28;20248;-65
2022/01/09 00:29:15;;;;;;;6.13;3.20;;;9.10;99.90;;;;;;5082013;28;20969;-66
2022/01/09 00:31:47;;;;;;;6.00;3.30;;;8.90;99.90;;;;;;5084550;28;20890;-65
2022/01/09 00:34:18;;;;;;;3.23;2.97;;;8.90;99.90;;;;;;5083452;28;20955;-65
2022/01/09 00:36:49;;;;;;;6.03;2.90;;;8.80;99.90;;;;;;5090942;28;20917;-65
2022/01/09 00:39:20;;;;;;;7.03;3.72;;;8.70;99.90;;;;;;5083340;28;20413;-65
2022/01/09 00:41:50;;;;;;;7.25;3.33;;;8.70;99.90;;;;;;5094948;28;20208;-64
2022/01/09 00:44:21;;;;;;;4.60;3.50;;;8.70;99.90;;;;;;5084968;28;20212;-64
2022/01/09 00:47:00;;;;;;;9.20;4.38;;;8.60;99.90;;;;;;5081413;28;20863;-65
2022/01/09 00:49:30;;;;;;;9.75;4.30;;;8.40;99.90;;;;;;5076589;28;20213;-64
2022/01/09 00:52:01;;;;;;;8.75;4.00;;;8.30;99.90;;;;;;5089373;28;20235;-66
2022/01/09 00:54:32;;;;;;;6.40;3.75;;;8.20;99.90;;;;;;5084893;28;20234;-66
2022/01/09 00:57:03;;;;;;;5.65;3.55;;;8.20;99.90;;;;;;5082618;28;20204;-69
2022/01/09 00:59:34;;;;;;;5.55;3.95;;;8.10;99.90;;;;;;5087096;28;20586;-70
2022/01/09 01:02:07;;;;;;;6.32;4.85;;;8.10;99.90;;;;;;5090839;28;20220;-71
2022/01/09 01:04:39;;;;;;;7.03;3.95;;;8.00;99.90;;;;;;5084646;28;20281;-68
2022/01/09 01:07:11;;;;;;;7.10;3.10;;;7.90;99.90;;;;;;5088814;28;20224;-65
2022/01/09 01:09:41;;;;;;;6.72;3.10;;;7.80;99.90;;;;;;5079994;28;20721;-65
2022/01/09 01:12:12;;;;;;;4.88;3.72;;;7.70;99.90;;;;;;5088736;28;20208;-63
2022/01/09 01:14:43;;;;;;;10.38;3.65;;;7.60;99.90;;;;;;5074276;28;20318;-65
2022/01/09 01:17:17;;;;;;;6.15;3.40;;;7.50;99.90;;;;;;5079559;28;20241;-66
2022/01/09 01:19:48;;;;;;;3.47;3.15;;;7.40;99.90;;;;;;5088877;28;20299;-65
2022/01/09 01:22:34;;;;;;;3.47;3.17;;;7.40;99.90;;;;;;5086375;28;20797;-65
2022/01/09 01:25:06;;;;;;;5.90;3.50;;;7.30;99.90;;;;;;5085512;28;20217;-63
2022/01/09 01:27:37;;;;;;;5.68;4.13;;;7.20;99.90;;;;;;5087969;28;20221;-71
2022/01/09 01:30:09;;;;;;;7.05;4.63;;;7.20;99.90;;;;;;5086511;28;20227;-63
2022/01/09 01:32:43;;;;;;;11.43;6.57;;;7.20;99.90;;;;;;5080497;28;20593;-64
2022/01/09 01:35:15;;;;;;;5.88;4.82;;;7.20;99.90;;;;;;5083889;28;20244;-64
2022/01/09 01:37:46;;;;;;;12.63;5.57;;;7.20;99.90;;;;;;5075393;28;20281;-65
2022/01/09 01:40:19;;;;;;;7.30;5.60;;;7.10;99.90;;;;;;5087516;28;20224;-64
2022/01/09 01:42:49;;;;;;;8.05;7.28;;;7.00;99.90;;;;;;5086422;28;20242;-64
2022/01/09 01:45:20;;;;;;;13.13;7.40;;;6.90;99.90;;;;;;5085898;28;20216;-65
2022/01/09 01:47:53;;;;;;;9.30;6.95;;;6.90;99.90;;;;;;5088346;28;20231;-64
2022/01/09 01:50:24;;;;;;;10.00;7.95;;;6.90;99.90;;;;;;5088675;28;20291;-64
2022/01/09 01:52:56;;;;;;;8.20;5.88;;;6.90;99.90;;;;;;5086469;28;20220;-63
2022/01/09 01:55:28;;;;;;;9.02;6.47;;;6.90;99.90;;;;;;5086160;28;20219;-64
2022/01/09 01:57:59;;;;;;;5.05;4.30;;;7.00;99.90;;;;;;5088168;28;20210;-62
2022/01/09 02:00:30;;;;;;;7.30;4.57;;;7.00;99.90;;;;;;5086987;28;20213;-64
2022/01/09 02:03:03;;;;;;;6.13;4.78;;;6.90;99.90;;;;;;5088295;28;20244;-64
2022/01/09 02:05:34;;;;;;;6.43;5.13;;;6.90;99.90;;;;;;5086652;28;20531;-63
2022/01/09 02:08:05;;;;;;;8.90;4.25;;;6.90;99.90;;;;;;5084118;28;20236;-62
2022/01/09 02:10:39;;;;;;;6.43;4.90;;;6.90;99.90;;;;;;5088597;28;20223;-64
2022/01/09 02:13:10;;;;;;;6.00;5.40;;;6.80;99.90;;;;;;5086005;28;20235;-65
2022/01/09 02:15:45;;;;;;;9.55;4.80;;;6.70;99.90;;;;;;5069177;28;20208;-63
2022/01/09 02:18:21;;;;;;;7.05;5.93;;;6.70;99.90;;;;;;5086033;28;20219;-64
2022/01/09 02:20:54;;;;;;;7.25;4.88;;;6.70;99.90;;;;;;5085699;28;20204;-63
2022/01/09 02:23:25;;;;;;;6.70;5.40;;;6.60;99.90;;;;;;5087177;28;20216;-63
2022/01/09 02:25:56;;;;;;;7.60;5.80;;;6.50;99.90;;;;;;5085787;28;20640;-64
2022/01/09 02:28:27;;;;;;;8.00;5.03;;;6.50;99.90;;;;;;5082046;28;20620;-63
2022/01/09 02:30:58;;;;;;;5.93;4.40;;;6.60;99.90;;;;;;5084985;28;20208;-64
2022/01/09 02:33:29;;;;;;;9.10;4.70;;;6.50;99.90;;;;;;5077936;28;20221;-64
2022/01/09 02:36:01;;;;;;;6.03;4.10;;;6.50;99.90;;;;;;5086051;28;20303;-64
2022/01/09 02:38:32;;;;;;;11.35;5.15;;;6.50;99.90;;;;;;5076953;28;20212;-64
2022/01/09 02:41:03;;;;;;;4.28;3.53;;;6.50;99.90;;;;;;5077727;28;20295;-65
2022/01/09 02:43:34;;;;;;;8.98;4.38;;;6.50;99.90;;;;;;5077424;28;20218;-65
2022/01/09 02:46:14;;;;;;;6.05;4.18;;;6.50;99.90;;;;;;5085567;28;20274;-63
2022/01/09 02:48:46;;;;;;;5.15;4.65;;;6.40;99.90;;;;;;5085575;28;20242;-67
2022/01/09 02:51:18;;;;;;;5.90;3.85;;;6.30;99.90;;;;;;5084401;28;20624;-65
2022/01/09 02:54:07;;;;;;;11.35;6.65;;;6.20;99.90;;;;;;5087116;28;20360;-67
2022/01/09 02:56:38;;;;;;;18.17;13.85;;;6.20;99.90;;;;;;5082579;28;20216;-65
2022/01/09 02:59:09;;;;;;;52.00;46.42;;;6.20;99.90;;;;;;5083668;28;20216;-64
2022/01/09 03:01:40;;;;;;;18.73;16.75;;;6.10;99.90;;;;;;5083953;28;20235;-64
2022/01/09 03:04:11;;;;;;;19.20;17.65;;;6.10;99.90;;;;;;5085883;28;20259;-63
2022/01/09 03:06:43;;;;;;;23.10;21.05;;;6.10;99.90;;;;;;5085439;28;20683;-64
2022/01/09 03:09:14;;;;;;;6.88;6.10;;;6.20;99.90;;;;;;5082492;28;20240;-66
2022/01/09 03:11:47;;;;;;;5.00;4.53;;;6.10;99.90;;;;;;5086054;28;20227;-67
2022/01/09 03:14:17;;;;;;;5.25;4.75;;;6.10;99.90;;;;;;5076185;28;20213;-63
2022/01/09 03:16:48;;;;;;;5.18;4.65;;;6.00;99.90;;;;;;5085728;28;20629;-64
2022/01/09 03:19:19;;;;;;;6.03;4.80;;;6.10;99.90;;;;;;5078644;28;20217;-64
2022/01/09 03:21:52;;;;;;;6.93;3.88;;;6.10;99.90;;;;;;5081741;28;20214;-65
2022/01/09 03:24:23;;;;;;;4.53;3.63;;;6.00;99.90;;;;;;5077086;28;20323;-62
2022/01/09 03:26:54;;;;;;;5.93;4.43;;;5.90;99.90;;;;;;5088510;28;20253;-68
2022/01/09 03:29:24;;;;;;;8.02;3.95;;;5.90;99.90;;;;;;5081775;28;20216;-74
2022/01/09 03:31:55;;;;;;;6.20;4.00;;;5.90;99.90;;;;;;5083131;28;20292;-72
2022/01/09 03:34:26;;;;;;;7.53;3.80;;;5.80;99.90;;;;;;5084813;28;20216;-71
2022/01/09 03:36:59;;;;;;;4.20;3.80;;;5.70;99.90;;;;;;5083202;28;20535;-70
2022/01/09 03:39:29;;;;;;;5.50;4.22;;;5.80;99.90;;;;;;5084655;28;20212;-74
2022/01/09 03:42:00;;;;;;;8.13;5.20;;;5.80;99.90;;;;;;5084894;28;20204;-73
2022/01/09 03:44:31;;;;;;;9.57;7.20;;;5.90;99.90;;;;;;5087103;28;20291;-62
2022/01/09 03:47:02;;;;;;;10.35;8.63;;;5.90;99.90;;;;;;5083946;28;20549;-66
2022/01/09 03:49:33;;;;;;;11.82;8.50;;;5.70;99.90;;;;;;5077726;28;20219;-65
2022/01/09 03:52:06;;;;;;;10.70;9.32;;;5.60;99.90;;;;;;5086022;28;20596;-70
2022/01/09 03:54:38;;;;;;;14.63;10.90;;;5.40;99.90;;;;;;5084488;28;20216;-70
2022/01/09 03:57:09;;;;;;;11.25;10.15;;;5.40;99.90;;;;;;5089072;28;20220;-69
2022/01/09 03:59:41;;;;;;;13.27;11.95;;;5.30;99.90;;;;;;5080474;28;20213;-68
2022/01/09 04:02:14;;;;;;;12.50;11.30;;;5.30;99.90;;;;;;5092274;28;20247;-70
2022/01/09 04:04:45;;;;;;;16.85;13.80;;;5.20;99.90;;;;;;5080733;28;20216;-70
2022/01/09 04:07:17;;;;;;;13.30;12.05;;;5.10;99.90;;;;;;5086765;28;20228;-74
2022/01/09 04:09:48;;;;;;;15.48;13.52;;;5.00;99.90;;;;;;5086836;28;20237;-74
2022/01/09 04:12:30;;;;;;;17.17;14.93;;;5.00;99.90;;;;;;5088899;28;20220;-74
2022/01/09 04:15:05;;;;;;;17.45;15.55;;;5.00;99.90;;;;;;5088962;28;20227;-75
2022/01/09 04:17:45;;;;;;;17.30;15.52;;;4.90;99.90;;;;;;5084801;28;20204;-75
2022/01/09 04:20:16;;;;;;;17.00;15.23;;;4.80;99.90;;;;;;5086106;28;20307;-76
2022/01/09 04:22:49;;;;;;;19.80;14.68;;;4.80;99.90;;;;;;5091607;28;20300;-76
2022/01/09 04:25:20;;;;;;;16.45;14.20;;;4.70;99.90;;;;;;5087634;28;20237;-75
2022/01/09 04:27:52;;;;;;;17.13;15.15;;;4.70;99.90;;;;;;5090526;28;20254;-74
2022/01/09 04:30:23;;;;;;;309.27;72.78;;;4.70;99.90;;;;;;5087862;28;20208;-74
2022/01/09 04:32:53;;;;;;;16.50;14.85;;;4.60;99.90;;;;;;5090288;28;20215;-75
2022/01/09 04:35:25;;;;;;;20.02;17.55;;;4.60;99.90;;;;;;5079908;28;20220;-75
2022/01/09 04:37:57;;;;;;;15.55;13.98;;;4.60;99.90;;;;;;5082566;28;20201;-74
2022/01/09 04:40:28;;;;;;;20.40;14.85;;;4.60;99.90;;;;;;5089337;28;20204;-74
2022/01/09 04:43:01;;;;;;;17.45;15.75;;;4.60;99.90;;;;;;5088822;28;20209;-75
2022/01/09 04:45:32;;;;;;;17.85;15.93;;;4.60;99.90;;;;;;5087934;28;20566;-75
2022/01/09 04:48:06;;;;;;;17.00;14.70;;;4.60;99.90;;;;;;5089931;28;20224;-75
2022/01/09 04:50:38;;;;;;;13.88;12.35;;;4.60;99.90;;;;;;5085242;28;20649;-75
2022/01/09 04:53:11;;;;;;;15.20;13.45;;;4.60;99.90;;;;;;5089311;28;20231;-74
2022/01/09 04:55:45;;;;;;;16.75;15.05;;;4.60;99.90;;;;;;5083127;28;20205;-75
2022/01/09 04:58:16;;;;;;;19.60;15.18;;;4.60;99.90;;;;;;5086633;28;20220;-74
2022/01/09 05:00:47;;;;;;;22.05;18.08;;;4.50;99.90;;;;;;5084046;28;20216;-75
2022/01/09 05:03:19;;;;;;;19.30;17.23;;;4.50;99.90;;;;;;5086073;28;20230;-68
2022/01/09 05:05:50;;;;;;;19.65;17.67;;;4.50;99.90;;;;;;5087821;28;20584;-69
2022/01/09 05:08:23;;;;;;;21.52;16.60;;;4.30;99.90;;;;;;5088750;28;20228;-71
2022/01/09 05:10:54;;;;;;;18.73;16.67;;;4.30;99.90;;;;;;5087183;28;20213;-71
2022/01/09 05:13:25;;;;;;;18.30;16.40;;;4.30;99.90;;;;;;5078178;28;20204;-71
2022/01/09 05:15:55;;;;;;;21.40;17.77;;;4.20;99.90;;;;;;5079880;28;20296;-73
2022/01/09 05:18:26;;;;;;;25.15;18.42;;;4.20;99.90;;;;;;5087683;28;20255;-72
2022/01/09 05:20:58;;;;;;;19.88;17.10;;;4.20;99.90;;;;;;5081446;28;20216;-72
2022/01/09 05:23:30;;;;;;;21.77;17.45;;;4.20;99.90;;;;;;5085949;28;20213;-69
2022/01/09 05:26:01;;;;;;;18.20;16.30;;;4.20;99.90;;;;;;5083918;28;20217;-71
2022/01/09 05:28:32;;;;;;;16.85;14.90;;;4.10;99.90;;;;;;5081207;28;20223;-69
2022/01/09 05:31:03;;;;;;;16.50;14.80;;;4.10;99.90;;;;;;5079378;28;20643;-69
2022/01/09 05:33:34;;;;;;;15.60;12.70;;;4.00;99.90;;;;;;5083579;28;20235;-70
2022/01/09 05:36:05;;;;;;;13.35;10.95;;;4.00;99.90;;;;;;5084891;28;20318;-70
2022/01/09 05:38:37;;;;;;;13.00;10.57;;;4.00;99.90;;;;;;5087716;28;20205;-69
2022/01/09 05:41:08;;;;;;;17.13;10.60;;;4.00;99.90;;;;;;5084485;28;20212;-70
2022/01/09 05:43:40;;;;;;;9.50;8.35;;;4.10;99.90;;;;;;5088014;28;20707;-70
2022/01/09 05:46:12;;;;;;;10.23;6.55;;;4.00;99.90;;;;;;5080935;28;20322;-69
2022/01/09 05:48:45;;;;;;;11.20;7.55;;;4.00;99.90;;;;;;5085056;28;20220;-70
2022/01/09 05:51:19;;;;;;;7.63;6.63;;;3.90;99.90;;;;;;5084827;28;20234;-70
2022/01/09 05:53:52;;;;;;;6.50;5.68;;;3.90;99.90;;;;;;5088799;28;20204;-70
2022/01/09 05:56:23;;;;;;;12.18;9.15;;;3.90;99.90;;;;;;5086940;28;20252;-70
2022/01/09 05:58:54;;;;;;;8.50;6.70;;;3.90;99.90;;;;;;5083211;28;20226;-71
2022/01/09 06:01:25;;;;;;;6.15;5.15;;;3.90;99.90;;;;;;5086183;28;20637;-70
2022/01/09 06:03:56;;;;;;;6.57;5.00;;;3.80;99.90;;;;;;5085763;28;20209;-70
2022/01/09 06:06:27;;;;;;;5.53;5.07;;;3.80;99.90;;;;;;5090309;28;20208;-72
2022/01/09 06:08:59;;;;;;;6.22;5.63;;;3.80;99.90;;;;;;5086343;28;20729;-70
2022/01/09 06:32:03;;;;;;;4.45;3.47;;;3.60;99.90;;;;;;5084814;28;20211;-71
2022/01/09 06:34:47;;;;;;;4.05;3.75;;;3.60;99.90;;;;;;5085544;28;20606;-72
2022/01/09 06:37:18;;;;;;;5.53;4.65;;;3.60;99.90;;;;;;5084222;28;20216;-72
2022/01/09 06:39:52;;;;;;;5.38;4.88;;;3.60;99.90;;;;;;5081484;28;20682;-73
2022/01/09 06:42:27;;;;;;;9.77;5.38;;;3.60;99.90;;;;;;5083438;28;20220;-73
2022/01/09 06:56:50;;;;;;;6.25;4.30;;;3.60;99.90;;;;;;5077861;28;20216;-73
2022/01/09 06:59:21;;;;;;;5.57;4.30;;;3.60;99.90;;;;;;5084193;28;20303;-72
2022/01/09 07:01:52;;;;;;;6.75;4.60;;;3.50;99.90;;;;;;5087203;28;20209;-72
2022/01/09 07:04:23;;;;;;;5.57;4.45;;;3.40;99.90;;;;;;5084881;28;20216;-73
2022/01/09 07:06:55;;;;;;;6.78;4.63;;;3.40;99.90;;;;;;5084409;28;20216;-72
2022/01/09 07:09:25;;;;;;;4.45;4.05;;;3.50;99.90;;;;;;5086162;28;20326;-67
2022/01/09 07:11:58;;;;;;;7.50;4.47;;;3.50;99.90;;;;;;5087402;28;20231;-69
2022/01/09 07:14:29;;;;;;;5.18;4.57;;;3.40;99.90;;;;;;5084804;28;20690;-68
2022/01/09 07:17:00;;;;;;;6.00;3.28;;;3.40;99.90;;;;;;5085598;28;20310;-68
2022/01/09 07:19:31;;;;;;;4.50;3.63;;;3.40;99.90;;;;;;5084714;28;20299;-68
2022/01/09 07:22:01;;;;;;;3.70;3.40;;;3.40;99.90;;;;;;5082960;28;20238;-68
2022/01/09 07:24:33;;;;;;;3.90;3.10;;;3.30;99.90;;;;;;5084255;28;20378;-67
2022/01/09 07:27:06;;;;;;;3.50;3.20;;;3.30;99.90;;;;;;5089598;28;20207;-67
2022/01/09 07:29:37;;;;;;;4.10;3.70;;;3.30;99.90;;;;;;5084026;28;20220;-68
2022/01/09 07:32:08;;;;;;;4.72;3.00;;;3.40;99.90;;;;;;5087711;28;20212;-68
2022/01/09 07:34:39;;;;;;;4.30;3.40;;;3.40;99.90;;;;;;5089574;28;20215;-68
2022/01/09 07:37:11;;;;;;;6.60;4.07;;;3.40;99.90;;;;;;5090841;28;20236;-68
2022/01/09 07:39:41;;;;;;;3.08;2.80;;;3.40;99.90;;;;;;5083770;28;20268;-68
2022/01/09 07:42:14;;;;;;;3.55;3.25;;;3.30;99.90;;;;;;5090706;28;20268;-67
2022/01/09 07:44:45;;;;;;;4.60;4.20;;;3.30;99.90;;;;;;5081020;28;20585;-66
2022/01/09 07:47:16;;;;;;;4.43;2.92;;;3.30;99.90;;;;;;5088784;28;20233;-66
2022/01/09 07:49:47;;;;;;;3.35;2.80;;;3.30;99.90;;;;;;5088682;28;20267;-66
2022/01/09 07:52:18;;;;;;;2.50;2.20;;;3.30;99.90;;;;;;5091881;28;20296;-67
2022/01/09 07:54:48;;;;;;;3.60;3.00;;;3.30;99.90;;;;;;5088406;28;20254;-66
2022/01/09 07:57:21;;;;;;;4.80;3.22;;;3.30;99.90;;;;;;5089797;28;20212;-66
2022/01/09 07:59:52;;;;;;;2.63;2.42;;;3.20;99.90;;;;;;5087448;28;20295;-66
2022/01/09 08:02:23;;;;;;;2.42;2.22;;;3.20;99.90;;;;;;5089908;28;20660;-66
2022/01/09 08:04:53;;;;;;;5.18;3.22;;;3.20;99.90;;;;;;5089432;28;20211;-66
2022/01/09 08:07:24;;;;;;;5.00;3.30;;;3.20;99.90;;;;;;5090813;28;20601;-66
2022/01/09 08:09:55;;;;;;;8.07;4.50;;;3.20;99.90;;;;;;5088024;28;20725;-66
2022/01/09 08:12:28;;;;;;;5.40;3.75;;;3.10;99.90;;;;;;5087581;28;20606;-66
2022/01/09 08:14:59;;;;;;;5.38;4.30;;;3.20;99.90;;;;;;5089281;28;20220;-67
2022/01/09 08:17:29;;;;;;;9.82;5.13;;;3.10;99.90;;;;;;5083485;28;20204;-66
2022/01/09 08:20:00;;;;;;;6.90;4.93;;;3.00;99.90;;;;;;5088048;28;20213;-66
2022/01/09 08:22:32;;;;;;;8.55;4.72;;;3.00;99.90;;;;;;5085700;28;20212;-67
2022/01/09 08:25:05;;;;;;;8.50;5.80;;;3.00;99.90;;;;;;5087678;28;20227;-66
2022/01/09 08:27:38;;;;;;;8.68;6.40;;;3.00;99.90;;;;;;5091085;28;20574;-68
2022/01/09 08:30:09;;;;;;;7.63;6.20;;;3.00;99.90;;;;;;5085308;28;20608;-67
2022/01/09 08:32:41;;;;;;;7.13;6.25;;;3.00;99.90;;;;;;5080537;28;20222;-69
2022/01/09 08:35:12;;;;;;;6.88;5.30;;;3.00;99.90;;;;;;5087965;28;20220;-71
2022/01/09 08:37:44;;;;;;;9.65;5.28;;;3.00;99.90;;;;;;5085499;28;20208;-69
2022/01/09 08:40:19;;;;;;;9.95;5.65;;;3.00;99.90;;;;;;5088607;28;20211;-69
2022/01/09 08:42:53;;;;;;;6.10;5.43;;;2.90;99.90;;;;;;5090156;28;20219;-69
2022/01/09 08:45:24;;;;;;;9.90;5.57;;;2.80;99.90;;;;;;5088916;28;20223;-68
2022/01/09 08:47:55;;;;;;;6.15;4.80;;;2.90;99.90;;;;;;5089359;28;20588;-68
2022/01/09 08:50:27;;;;;;;5.28;4.78;;;2.90;99.90;;;;;;5089712;28;20345;-69
2022/01/09 08:52:58;;;;;;;4.63;4.18;;;2.90;99.90;;;;;;5087321;28;20212;-69
2022/01/09 08:55:29;;;;;;;8.95;4.75;;;2.80;99.90;;;;;;5086988;28;20219;-69
2022/01/09 08:58:01;;;;;;;4.43;4.03;;;2.80;99.90;;;;;;5088836;28;20204;-68
2022/01/09 09:00:32;;;;;;;7.18;4.60;;;2.80;99.90;;;;;;5086336;28;20216;-70
2022/01/09 09:03:04;;;;;;;5.35;4.90;;;2.80;99.90;;;;;;5090461;28;20277;-68
2022/01/09 09:05:35;;;;;;;6.35;4.47;;;2.80;99.90;;;;;;5086771;28;20307;-69
2022/01/09 09:08:06;;;;;;;4.10;3.70;;;2.80;99.90;;;;;;5086011;28;20240;-69
2022/01/09 09:10:37;;;;;;;5.60;4.40;;;2.80;99.90;;;;;;5089252;28;20221;-69
2022/01/09 09:13:10;;;;;;;8.13;4.47;;;2.80;99.90;;;;;;5085319;28;20212;-69
2022/01/09 09:15:41;;;;;;;4.90;4.40;;;2.70;99.90;;;;;;5089644;28;20231;-69
2022/01/09 09:18:11;;;;;;;6.78;4.97;;;2.80;99.90;;;;;;5088365;28;20234;-69
2022/01/09 09:20:44;;;;;;;6.75;5.18;;;2.80;99.90;;;;;;5081367;28;20291;-68
2022/01/09 09:23:15;;;;;;;7.57;6.80;;;2.80;99.90;;;;;;5089625;28;20209;-69
2022/01/09 09:25:46;;;;;;;9.43;7.50;;;2.80;99.90;;;;;;5085789;28;20521;-68
2022/01/09 09:28:19;;;;;;;8.65;7.85;;;2.80;99.90;;;;;;5088302;28;20928;-69
2022/01/09 09:30:50;;;;;;;9.70;8.00;;;2.70;99.90;;;;;;5085001;28;20247;-69
2022/01/09 09:33:20;;;;;;;8.85;7.90;;;2.70;99.90;;;;;;5089589;28;20644;-69
2022/01/09 09:35:52;;;;;;;12.85;9.05;;;2.60;99.90;;;;;;5086145;28;20216;-69
2022/01/09 09:38:23;;;;;;;11.73;8.65;;;2.70;99.90;;;;;;5086036;28;20641;-68
2022/01/09 09:40:54;;;;;;;10.82;8.88;;;2.70;99.90;;;;;;5087532;28;20216;-68
2022/01/09 09:43:27;;;;;;;9.98;8.82;;;2.70;99.90;;;;;;5086397;28;20301;-69
2022/01/09 09:45:58;;;;;;;13.50;9.63;;;2.80;99.90;;;;;;5088467;28;20216;-69
2022/01/09 09:48:28;;;;;;;11.57;9.65;;;2.70;99.90;;;;;;5086064;28;20208;-68
2022/01/09 09:51:00;;;;;;;16.10;10.63;;;2.60;99.90;;;;;;5088633;28;20224;-68
2022/01/09 09:53:31;;;;;;;11.95;10.82;;;2.60;99.90;;;;;;5087099;28;20639;-68
2022/01/09 09:56:02;;;;;;;11.77;9.80;;;2.60;99.90;;;;;;5084645;28;20222;-68
2022/01/09 09:58:35;;;;;;;13.07;9.63;;;2.60;99.90;;;;;;5076214;28;21002;-69
2022/01/09 10:01:06;;;;;;;12.25;9.98;;;2.60;99.90;;;;;;5084580;28;20219;-69
2022/01/09 10:03:36;;;;;;;12.18;10.48;;;2.60;99.90;;;;;;5089220;28;20641;-69
2022/01/09 10:06:08;;;;;;;12.38;10.30;;;2.60;99.90;;;;;;5079510;28;20248;-69
2022/01/09 10:08:40;;;;;;;16.13;10.73;;;2.60;99.90;;;;;;5086955;28;20232;-69
2022/01/09 10:11:15;;;;;;;13.00;10.63;;;2.40;99.90;;;;;;5088203;28;20254;-69
2022/01/09 10:13:49;;;;;;;15.38;11.02;;;2.50;99.90;;;;;;5081223;28;20222;-69
2022/01/09 10:16:20;;;;;;;11.75;10.50;;;2.40;99.90;;;;;;5086127;28;20315;-70
2022/01/09 10:18:53;;;;;;;12.68;10.88;;;2.30;99.90;;;;;;5086922;28;20225;-69
2022/01/09 10:21:26;;;;;;;10.85;9.75;;;2.30;99.90;;;;;;5082692;28;20286;-69
2022/01/09 10:24:02;;;;;;;13.90;10.95;;;2.40;99.90;;;;;;5088680;28;20204;-69
2022/01/09 10:26:35;;;;;;;14.50;12.23;;;2.40;99.90;;;;;;5086522;28;20216;-69
2022/01/09 10:29:10;;;;;;;15.35;10.68;;;2.30;99.90;;;;;;5086198;28;20208;-68
2022/01/09 10:31:45;;;;;;;13.13;11.40;;;2.20;99.90;;;;;;5086276;28;20231;-69
2022/01/09 10:34:17;;;;;;;17.17;11.32;;;2.20;99.90;;;;;;5085311;28;20231;-69
2022/01/09 10:36:51;;;;;;;11.73;10.10;;;2.20;99.90;;;;;;5078832;28;20247;-68
2022/01/09 10:39:30;;;;;;;14.52;9.50;;;2.20;99.90;;;;;;5082042;28;20217;-69
2022/01/09 10:42:03;;;;;;;13.35;10.40;;;2.20;99.90;;;;;;5083810;28;20212;-69
2022/01/09 10:44:39;;;;;;;16.80;11.00;;;2.20;99.90;;;;;;5085542;28;20227;-68
2022/01/09 10:47:15;;;;;;;15.00;10.57;;;2.20;99.90;;;;;;5088742;28;20307;-68
2022/01/09 10:49:48;;;;;;;13.40;9.70;;;2.20;99.90;;;;;;5077118;28;20211;-68
2022/01/09 10:52:24;;;;;;;12.85;9.35;;;2.20;99.90;;;;;;5085083;28;20254;-69
2022/01/09 10:54:57;;;;;;;15.65;12.48;;;2.10;99.90;;;;;;5086298;28;20289;-70
2022/01/09 10:57:31;;;;;;;11.77;9.77;;;2.20;99.90;;;;;;5079796;28;20620;-70
2022/01/09 11:00:10;;;;;;;13.30;11.30;;;2.20;99.90;;;;;;5084658;28;20211;-69
2022/01/09 11:02:42;;;;;;;13.35;11.07;;;2.20;99.90;;;;;;5087827;28;20214;-69
2022/01/09 11:05:13;;;;;;;18.50;11.45;;;2.10;99.90;;;;;;5085061;28;20253;-69
2022/01/09 11:07:50;;;;;;;11.23;10.05;;;2.20;99.90;;;;;;5086153;28;20208;-70
2022/01/09 11:10:21;;;;;;;13.38;10.30;;;2.10;99.90;;;;;;5082357;28;20218;-69
2022/01/09 11:12:58;;;;;;;12.57;10.63;;;1.90;99.90;;;;;;5079187;28;20208;-69
2022/01/09 11:15:36;;;;;;;13.05;11.20;;;1.90;99.90;;;;;;5085469;28;20212;-69
2022/01/09 11:18:06;;;;;;;15.15;11.73;;;2.00;99.90;;;;;;5083518;28;20531;-69
2022/01/09 11:20:37;;;;;;;11.40;10.30;;;2.00;99.90;;;;;;5086186;28;20208;-69
2022/01/09 11:23:10;;;;;;;11.68;10.38;;;1.90;99.90;;;;;;5085275;28;20315;-69
2022/01/09 11:25:44;;;;;;;14.27;10.60;;;1.80;99.90;;;;;;5081619;28;20346;-70
2022/01/09 11:28:22;;;;;;;12.98;9.52;;;1.80;99.90;;;;;;5083088;28;20212;-70
2022/01/09 11:31:00;;;;;;;13.35;9.70;;;1.80;99.90;;;;;;5081434;28;20216;-69
2022/01/09 11:33:54;;;;;;;14.10;12.13;;;1.80;99.90;;;;;;5087178;28;20611;-69
2022/01/09 11:36:34;;;;;;;11.68;10.52;;;1.70;99.90;;;;;;5085829;28;20235;-70
2022/01/09 11:39:12;;;;;;;13.57;11.43;;;1.70;99.90;;;;;;5085520;28;20620;-69
2022/01/09 11:41:44;;;;;;;13.88;11.70;;;1.70;99.90;;;;;;5086156;28;20210;-69
2022/01/09 11:44:16;;;;;;;16.70;12.15;;;1.70;99.90;;;;;;5088023;28;20220;-70
2022/01/09 11:47:06;;;;;;;13.15;11.70;;;1.70;99.90;;;;;;5082000;28;20257;-69
2022/01/09 11:49:41;;;;;;;15.95;11.00;;;1.50;99.90;;;;;;5080002;28;20218;-69
2022/01/09 11:52:12;;;;;;;12.95;11.45;;;1.60;99.90;;;;;;5086199;28;20251;-70
2022/01/09 11:54:51;;;;;;;16.10;13.30;;;1.50;99.90;;;;;;5085168;28;20219;-69
2022/01/09 11:57:37;;;;;;;16.45;11.70;;;1.60;99.90;;;;;;5085520;28;20223;-70
2022/01/09 12:00:10;;;;;;;16.65;12.55;;;1.60;99.90;;;;;;5074891;28;20310;-69
2022/01/09 12:02:43;;;;;;;15.63;13.70;;;1.60;99.90;;;;;;5086836;28;20209;-68
2022/01/09 12:05:14;;;;;;;13.45;11.95;;;1.60;99.90;;;;;;5082099;28;20236;-69
2022/01/09 12:08:11;;;;;;;15.40;12.05;;;1.70;99.90;;;;;;5085895;28;20295;-70
2022/01/09 12:10:52;;;;;;;18.88;12.63;;;1.60;99.90;;;;;;5083768;28;20269;-69
2022/01/09 12:13:43;;;;;;;15.23;11.20;;;1.60;99.90;;;;;;5083606;28;20231;-69
2022/01/09 12:16:51;;;;;;;14.45;11.15;;;1.50;99.90;;;;;;5085626;28;20220;-70
2022/01/09 12:20:05;;;;;;;15.02;12.38;;;1.50;99.90;;;;;;5086845;28;20216;-69
2022/01/09 12:23:01;;;;;;;14.85;11.93;;;1.60;99.90;;;;;;5088706;28;20521;-69
2022/01/09 12:25:50;;;;;;;15.25;12.32;;;1.40;99.90;;;;;;5089837;28;20212;-69
2022/01/09 12:28:26;;;;;;;13.50;10.55;;;1.30;99.90;;;;;;5087619;28;20230;-69
2022/01/09 12:30:58;;;;;;;13.95;11.13;;;1.30;99.90;;;;;;5077316;28;20229;-69
2022/01/09 12:33:51;;;;;;;13.18;10.73;;;1.30;99.90;;;;;;5089253;28;20224;-69
2022/01/09 12:36:33;;;;;;;13.80;10.93;;;1.30;99.90;;;;;;5089487;28;20231;-69
2022/01/09 12:39:07;;;;;;;15.13;11.57;;;1.30;99.90;;;;;;5081689;28;20242;-68
2022/01/09 12:41:42;;;;;;;13.48;11.10;;;1.30;99.90;;;;;;5076823;28;20213;-68
2022/01/09 12:44:15;;;;;;;14.85;11.98;;;1.30;99.90;;;;;;5088513;28;20214;-68
2022/01/09 12:46:48;;;;;;;12.82;11.13;;;1.20;99.90;;;;;;5089593;28;20687;-69
2022/01/09 12:49:19;;;;;;;12.23;10.85;;;1.30;99.90;;;;;;5088394;28;20273;-68
2022/01/09 12:52:00;;;;;;;13.00;11.38;;;1.20;99.90;;;;;;5088676;28;20224;-69
2022/01/09 12:54:31;;;;;;;14.05;10.73;;;1.20;99.90;;;;;;5086492;28;20224;-68
2022/01/09 12:57:04;;;;;;;15.48;11.95;;;1.10;99.90;;;;;;5089715;28;20208;-69
2022/01/09 12:59:35;;;;;;;13.38;11.00;;;1.10;99.90;;;;;;5081644;28;20691;-69
2022/01/09 13:02:11;;;;;;;12.07;10.77;;;1.20;99.90;;;;;;5088593;28;20209;-69
2022/01/09 13:04:42;;;;;;;14.70;11.00;;;1.30;99.90;;;;;;5082525;28;20211;-67
2022/01/09 13:07:19;;;;;;;12.32;10.30;;;1.20;99.90;;;;;;5090118;28;20218;-69
2022/01/09 13:09:49;;;;;;;14.35;11.20;;;1.10;99.90;;;;;;5077434;28;20667;-68
2022/01/09 13:12:22;;;;;;;14.93;10.48;;;1.10;99.90;;;;;;5084310;28;20224;-68
2022/01/09 13:14:54;;;;;;;10.90;9.80;;;1.10;99.90;;;;;;5083420;28;20208;-68
2022/01/09 13:17:24;;;;;;;12.05;9.57;;;1.10;99.90;;;;;;5087972;28;20216;-69
2022/01/09 13:20:19;;;;;;;11.82;10.15;;;1.20;99.90;;;;;;5089023;28;20219;-68
2022/01/09 13:23:04;;;;;;;14.02;10.68;;;1.20;99.90;;;;;;5084770;28;20588;-68
2022/01/09 13:25:45;;;;;;;11.73;9.00;;;1.20;99.90;;;;;;5081558;28;20216;-72
2022/01/09 13:28:22;;;;;;;10.32;8.38;;;1.20;99.90;;;;;;5081953;28;20580;-72
2022/01/09 13:30:59;;;;;;;9.50;8.50;;;1.20;99.90;;;;;;5086559;28;20698;-71
2022/01/09 13:33:30;;;;;;;9.52;7.47;;;1.20;99.90;;;;;;5089361;28;20220;-71
2022/01/09 13:36:03;;;;;;;8.07;7.28;;;1.20;99.90;;;;;;5087115;28;20221;-72
2022/01/09 13:38:35;;;;;;;8.50;6.43;;;1.30;99.90;;;;;;5086574;28;20212;-72
2022/01/09 13:41:06;;;;;;;6.65;6.05;;;1.40;99.90;;;;;;5085749;28;20208;-72
2022/01/09 13:43:37;;;;;;;9.95;6.65;;;1.40;99.90;;;;;;5087288;28;20213;-73
2022/01/09 13:46:13;;;;;;;8.77;6.40;;;1.40;99.90;;;;;;5084740;28;20267;-72
2022/01/09 13:48:50;;;;;;;7.55;6.18;;;1.40;99.90;;;;;;5075221;28;20593;-72
2022/01/09 13:51:46;;;;;;;6.40;5.78;;;1.40;99.90;;;;;;5088794;28;20234;-73